Time;durP1;ratioP1;P1;durP2;ratioP2;P2;SDS_P1;SDS_P2;PMS_P1;PMS_P2;Temp;Humidity;BMP_temperature;BMP_pressure;BME280_temperature;BME280_humidity;BME280_pressure;Samples;Min_cycle;Max_cycle;Signal;HPM_P1;HPM_P2
2023/01/20 00:01:35;;;;;;;21.73;3.05;;;;;;;21.38;63.12;98695.34;7311013;19;129845;-36
2023/01/20 00:04:02;;;;;;;17.90;2.63;;;;;;;21.40;62.23;98701.19;7309995;19;129053;-38
2023/01/20 00:06:29;;;;;;;27.67;3.25;;;;;;;21.40;62.01;98695.19;7309198;19;128992;-38
2023/01/20 00:09:00;;;;;;;15.45;2.25;;;;;;;21.39;62.65;98699.56;7313685;19;129434;-38
2023/01/20 00:11:30;;;;;;;45.85;4.90;;;;;;;21.39;63.27;98704.81;7307055;19;132382;-38
2023/01/20 00:14:00;;;;;;;22.73;2.92;;;;;;;21.42;62.48;98707.09;7303781;19;129698;-39
2023/01/20 00:16:27;;;;;;;51.47;5.82;;;;;;;21.44;62.45;98710.38;7305546;19;129846;-38
2023/01/20 00:18:53;;;;;;;;;;;;;;;21.40;63.64;98688.13;7310906;19;129476;-40
2023/01/20 00:21:20;;;;;;;16.42;2.40;;;;;;;21.45;62.39;98704.16;7310053;19;129169;-40
2023/01/20 00:23:47;;;;;;;12.55;1.83;;;;;;;21.42;62.02;98704.47;7306949;19;128971;-40
2023/01/20 00:26:21;;;;;;;27.35;3.45;;;;;;;21.46;63.23;98702.38;7309821;19;128827;-38
2023/01/20 00:28:49;;;;;;;33.88;3.83;;;;;;;21.46;62.63;98715.44;7312242;19;129059;-39
2023/01/20 00:31:21;;;;;;;24.35;3.03;;;;;;;21.44;63.60;98713.00;7310623;19;129224;-40
2023/01/20 00:33:49;;;;;;;25.23;2.95;;;;;;;21.43;62.73;98713.16;7309358;19;128792;-38
2023/01/20 00:36:17;;;;;;;19.35;2.55;;;;;;;21.43;62.83;98711.38;7309257;19;129117;-38
2023/01/20 00:38:44;;;;;;;35.83;3.83;;;;;;;21.42;62.63;98725.41;7308848;19;129366;-39
2023/01/20 00:41:10;;;;;;;;;;;;;;;21.48;64.07;98719.56;7311090;19;129118;-38
2023/01/20 00:43:42;;;;;;;18.08;2.40;;;;;;;21.45;63.28;98729.50;7308373;19;129359;-40
2023/01/20 00:46:09;;;;;;;19.98;2.67;;;;;;;21.43;62.26;98732.28;7310859;19;129180;-38
2023/01/20 00:48:36;;;;;;;18.52;2.42;;;;;;;21.42;63.09;98733.25;7310255;19;129174;-38
2023/01/20 00:51:03;;;;;;;;;;;;;;;21.36;64.15;98720.81;7309610;19;131222;-41
2023/01/20 00:53:29;;;;;;;20.70;2.88;;;;;;;21.43;63.44;98739.31;7307616;19;128927;-39
2023/01/20 00:55:56;;;;;;;17.23;2.10;;;;;;;21.38;62.59;98742.41;7310268;19;129723;-41
2023/01/20 00:58:23;;;;;;;19.90;2.72;;;;;;;21.28;62.64;98723.41;7308726;19;129205;-40
2023/01/20 01:00:49;;;;;;;;;;;;;;;21.48;63.50;98747.50;7310877;19;129343;-41
2023/01/20 01:03:16;;;;;;;24.48;3.10;;;;;;;21.38;63.28;98755.47;7307635;19;129444;-39
2023/01/20 01:05:43;;;;;;;15.55;2.15;;;;;;;21.40;63.36;98758.72;7309106;19;129033;-38
2023/01/20 01:08:09;;;;;;;;;;;;;;;21.47;63.73;98764.97;7309786;19;129586;-41
2023/01/20 01:10:36;;;;;;;28.52;3.35;;;;;;;21.43;63.20;98774.13;7309240;19;129618;-39
2023/01/20 01:13:03;;;;;;;20.48;2.58;;;;;;;21.43;63.97;98781.13;7309710;19;129123;-37
2023/01/20 01:15:30;;;;;;;15.25;2.33;;;;;;;21.47;63.09;98780.66;7307878;19;129768;-38
2023/01/20 01:17:57;;;;;;;16.20;2.17;;;;;;;21.45;62.99;98779.19;7311018;19;129700;-40
2023/01/20 01:20:27;;;;;;;38.13;4.28;;;;;;;21.45;63.27;98784.44;7307806;19;131174;-39
2023/01/20 01:22:54;;;;;;;17.83;2.13;;;;;;;21.44;62.55;98791.44;7308319;19;129012;-39
2023/01/20 01:25:21;;;;;;;44.47;5.95;;;;;;;21.37;62.32;98779.16;7308327;19;129024;-40
2023/01/20 01:27:47;;;;;;;15.85;2.08;;;;;;;21.34;62.78;98795.97;7307134;19;129568;-38
2023/01/20 01:30:16;;;;;;;27.58;3.38;;;;;;;21.24;61.41;98799.69;7307035;19;129211;-40
2023/01/20 01:32:43;;;;;;;11.70;1.67;;;;;;;21.13;62.08;98803.41;7308315;19;129055;-41
2023/01/20 01:35:10;;;;;;;31.88;3.92;;;;;;;21.09;61.31;98807.28;7307648;19;129686;-40
2023/01/20 01:37:36;;;;;;;;;;;;;;;21.06;61.70;98812.84;7309051;19;129457;-41
2023/01/20 01:40:03;;;;;;;31.00;3.63;;;;;;;21.11;61.90;98814.97;7307834;19;129182;-39
2023/01/20 01:42:30;;;;;;;30.27;3.47;;;;;;;21.19;60.87;98808.00;7308785;19;129162;-36
2023/01/20 01:45:12;;;;;;;14.60;1.90;;;;;;;21.28;60.92;98801.84;7310910;19;129337;-40
2023/01/20 01:47:48;;;;;;;12.65;2.15;;;;;;;21.40;61.01;98808.41;7309058;19;129127;-39
2023/01/20 01:50:40;;;;;;;24.67;2.95;;;;;;;21.51;60.00;98807.31;7307669;19;129935;-39
2023/01/20 01:53:08;;;;;;;18.75;2.33;;;;;;;21.63;60.33;98809.50;7303696;19;129770;-39
2023/01/20 01:55:38;;;;;;;37.22;4.47;;;;;;;21.60;59.99;98812.41;7308073;19;130204;-38
2023/01/20 01:58:11;;;;;;;30.35;3.42;;;;;;;21.54;59.66;98817.47;7309113;19;129159;-38
2023/01/20 02:00:39;;;;;;;27.15;3.17;;;;;;;21.53;60.61;98816.66;7308836;19;129689;-39
2023/01/20 02:03:06;;;;;;;8.27;1.50;;;;;;;21.50;60.67;98824.78;7306509;19;129108;-41
2023/01/20 02:05:35;;;;;;;26.75;3.30;;;;;;;21.46;60.43;98831.34;7307919;19;129024;-38
2023/01/20 02:08:02;;;;;;;21.52;2.45;;;;;;;21.44;60.70;98825.44;7308472;19;129546;-39
2023/01/20 02:10:30;;;;;;;26.33;3.65;;;;;;;21.41;60.55;98823.13;7307468;19;129684;-38
2023/01/20 02:12:58;;;;;;;13.82;1.80;;;;;;;21.36;60.62;98817.56;7307563;19;129148;-40
2023/01/20 02:15:33;;;;;;;31.00;3.92;;;;;;;21.31;60.40;98811.97;7307352;19;130013;-39
2023/01/20 02:18:33;;;;;;;14.07;1.63;;;;;;;21.29;60.98;98821.78;7309198;19;129449;-38
2023/01/20 02:21:14;;;;;;;21.05;2.65;;;;;;;21.29;61.20;98824.38;7307739;19;129138;-38
2023/01/20 02:24:03;;;;;;;18.58;2.28;;;;;;;21.25;61.24;98830.91;7306522;19;129050;-40
2023/01/20 02:26:47;;;;;;;20.00;2.50;;;;;;;21.20;61.65;98830.56;7306958;19;129165;-38
2023/01/20 02:29:35;;;;;;;27.90;3.35;;;;;;;21.20;61.13;98833.19;7307699;19;129615;-38
2023/01/20 02:32:10;;;;;;;24.27;3.10;;;;;;;21.15;61.57;98832.81;7304578;19;129649;-41
2023/01/20 02:34:57;;;;;;;23.88;2.80;;;;;;;21.10;61.31;98834.25;7308732;19;129416;-40
2023/01/20 02:37:29;;;;;;;25.80;2.93;;;;;;;21.09;62.24;98836.03;7306401;19;129774;-37
2023/01/20 02:40:01;;;;;;;28.90;3.33;;;;;;;21.08;61.66;98839.63;7314526;19;129468;-40
2023/01/20 02:42:33;;;;;;;18.58;2.53;;;;;;;21.03;62.23;98833.22;7313469;19;129368;-39
2023/01/20 02:45:16;;;;;;;14.18;1.90;;;;;;;21.01;62.02;98841.22;7315667;19;129462;-38
2023/01/20 02:47:50;;;;;;;22.50;2.65;;;;;;;21.06;61.87;98841.56;7315601;19;129207;-38
2023/01/20 02:50:39;;;;;;;27.50;3.33;;;;;;;21.02;63.34;98853.34;7314855;19;129590;-41
2023/01/20 02:53:08;;;;;;;27.90;2.90;;;;;;;21.06;61.95;98853.81;7311971;19;129351;-40
2023/01/20 02:55:46;;;;;;;37.65;4.28;;;;;;;21.05;63.36;98857.41;7311916;19;129383;-39
2023/01/20 02:58:22;;;;;;;19.08;2.28;;;;;;;21.05;63.42;98853.00;7314476;19;128877;-37
2023/01/20 03:01:01;;;;;;;25.83;3.17;;;;;;;21.05;64.25;98865.25;7315130;19;130343;-39
2023/01/20 03:03:33;;;;;;;17.52;1.98;;;;;;;21.05;63.29;98853.00;7312962;19;129907;-40
2023/01/20 03:06:03;;;;;;;9.18;1.50;;;;;;;21.01;62.57;98856.91;7313548;19;129764;-38
2023/01/20 03:08:32;;;;;;;19.25;2.65;;;;;;;21.07;62.93;98865.94;7314630;19;129414;-38
2023/01/20 03:11:08;;;;;;;22.10;2.90;;;;;;;21.04;63.37;98872.25;7312128;19;129632;-37
2023/01/20 03:13:48;;;;;;;14.50;2.17;;;;;;;21.10;63.10;98876.06;7312885;19;129652;-41
2023/01/20 03:16:18;;;;;;;32.78;3.50;;;;;;;21.12;64.01;98869.69;7312775;19;129263;-40
2023/01/20 03:18:44;;;;;;;20.92;2.50;;;;;;;21.14;64.03;98872.97;7315115;19;129596;-40
2023/01/20 03:21:12;;;;;;;18.55;2.25;;;;;;;21.17;63.19;98871.88;7313680;19;129602;-40
2023/01/20 03:23:49;;;;;;;18.48;2.50;;;;;;;21.19;64.13;98881.19;7312564;19;129915;-40
2023/01/20 03:26:21;;;;;;;23.58;2.70;;;;;;;21.07;62.31;98882.44;7311955;19;129107;-38
2023/01/20 03:28:48;;;;;;;30.98;3.22;;;;;;;20.97;61.94;98881.72;7314973;19;129575;-41
2023/01/20 03:31:23;;;;;;;16.52;2.15;;;;;;;20.94;62.45;98889.81;7312873;19;129756;-40
2023/01/20 03:33:53;;;;;;;28.38;3.40;;;;;;;20.85;62.08;98872.44;7310073;19;129611;-37
2023/01/20 03:36:23;;;;;;;8.95;1.52;;;;;;;20.97;62.44;98894.78;7311926;19;129627;-41
2023/01/20 03:38:50;;;;;;;27.00;3.17;;;;;;;21.02;61.64;98900.38;7313951;19;129818;-39
2023/01/20 03:41:31;;;;;;;20.40;2.42;;;;;;;21.16;61.18;98902.41;7313950;19;130345;-39
2023/01/20 03:44:14;;;;;;;20.80;2.40;;;;;;;21.31;60.80;98902.66;7311810;19;130088;-40
2023/01/20 03:47:03;;;;;;;19.40;2.60;;;;;;;21.38;60.50;98901.91;7312670;19;129417;-39
2023/01/20 03:49:54;;;;;;;17.17;2.15;;;;;;;21.46;60.39;98896.72;7313604;19;129163;-38
2023/01/20 03:52:33;;;;;;;19.83;2.58;;;;;;;21.45;60.48;98907.34;7310257;19;130109;-38
2023/01/20 03:55:15;;;;;;;18.00;2.10;;;;;;;21.42;60.87;98905.84;7315006;19;130696;-38
2023/01/20 03:57:50;;;;;;;12.93;1.85;;;;;;;21.43;60.22;98910.09;7313376;19;128857;-40
2023/01/20 04:00:21;;;;;;;17.30;2.22;;;;;;;21.38;60.40;98904.53;7310814;19;129565;-40
2023/01/20 04:02:49;;;;;;;21.42;2.63;;;;;;;21.31;60.96;98908.72;7311004;19;129462;-38
2023/01/20 04:05:16;;;;;;;45.65;5.47;;;;;;;21.30;60.84;98914.94;7309049;19;129417;-39
2023/01/20 04:07:49;;;;;;;28.20;3.15;;;;;;;21.26;61.42;98913.59;7313053;19;129263;-41
2023/01/20 04:10:17;;;;;;;43.15;4.50;;;;;;;21.23;60.89;98919.13;7310885;19;129766;-41
2023/01/20 04:12:44;;;;;;;20.27;2.40;;;;;;;21.04;61.10;98903.63;7309117;19;129535;-39
2023/01/20 04:15:11;;;;;;;42.15;5.22;;;;;;;21.11;61.50;98917.72;7310931;19;129599;-40
2023/01/20 04:17:37;;;;;;;17.73;2.38;;;;;;;21.12;61.73;98916.75;7310184;19;128998;-36
2023/01/20 04:20:12;;;;;;;22.05;2.65;;;;;;;21.02;61.79;98916.06;7310733;19;129739;-39
2023/01/20 04:22:57;;;;;;;17.73;2.13;;;;;;;21.02;62.15;98929.13;7308621;19;128997;-38
2023/01/20 04:25:29;;;;;;;33.65;3.92;;;;;;;21.00;61.96;98930.22;7310331;19;130338;-40
2023/01/20 04:27:58;;;;;;;15.80;2.10;;;;;;;21.00;61.94;98933.66;7310324;19;129366;-40
2023/01/20 04:30:25;;;;;;;24.48;2.70;;;;;;;20.97;62.12;98940.94;7311261;19;129809;-39
2023/01/20 04:32:51;;;;;;;21.55;2.38;;;;;;;20.90;61.80;98932.91;7307052;19;129438;-38
2023/01/20 04:35:20;;;;;;;39.97;5.20;;;;;;;20.97;62.23;98936.59;7310928;19;130396;-39
2023/01/20 04:37:46;;;;;;;16.58;2.10;;;;;;;21.08;61.41;98932.91;7310612;19;129766;-41
2023/01/20 04:40:13;;;;;;;;;;;;;;;21.30;60.75;98928.00;7311099;19;129791;-40
2023/01/20 04:42:39;;;;;;;25.42;2.97;;;;;;;21.64;60.19;98939.31;7308760;19;129230;-41
2023/01/20 04:45:06;;;;;;;31.05;3.70;;;;;;;21.92;59.52;98942.56;7310091;19;130277;-41
2023/01/20 04:47:33;;;;;;;51.45;5.32;;;;;;;22.19;58.76;98944.13;7308243;19;129101;-37
2023/01/20 04:50:00;;;;;;;20.55;2.20;;;;;;;22.36;57.69;98958.94;7311716;19;129634;-37
2023/01/20 04:52:26;;;;;;;30.48;2.85;;;;;;;22.53;57.05;98955.38;7308495;19;129799;-39
2023/01/20 04:54:53;;;;;;;19.67;2.03;;;;;;;22.68;56.60;98966.88;7309931;19;130346;-40
2023/01/20 04:57:19;;;;;;;19.08;2.40;;;;;;;22.67;56.80;98966.06;7309975;19;129019;-38
2023/01/20 04:59:46;;;;;;;33.63;3.58;;;;;;;22.73;56.90;98967.19;7308704;19;128883;-40
2023/01/20 05:02:12;;;;;;;;;;;;;;;22.73;56.83;98961.97;7308709;19;129022;-39
2023/01/20 05:04:39;;;;;;;17.55;2.05;;;;;;;22.85;56.44;98971.16;7309708;19;129813;-39
2023/01/20 05:07:06;;;;;;;25.02;2.78;;;;;;;22.74;56.79;98966.25;7309046;19;129002;-37
2023/01/20 05:09:32;;;;;;;;;;;;;;;22.89;56.39;98980.34;7309161;19;128990;-39
2023/01/20 05:12:04;;;;;;;26.85;3.05;;;;;;;22.92;56.25;98980.00;7308908;19;129587;-39
2023/01/20 05:14:31;;;;;;;17.80;2.05;;;;;;;22.96;56.20;98983.94;7309407;19;129148;-40
2023/01/20 05:16:57;;;;;;;;;;;;;;;22.72;56.74;98968.19;7310665;19;129368;-40
2023/01/20 05:19:26;;;;;;;14.00;1.63;;;;;;;22.96;55.62;98986.56;7309595;19;129867;-40
2023/01/20 05:21:53;;;;;;;34.20;3.47;;;;;;;22.95;56.35;98990.16;7309756;19;129114;-39
2023/01/20 05:24:19;;;;;;;;;;;;;;;22.91;56.46;98994.09;7308738;19;129723;-40
2023/01/20 05:26:46;;;;;;;13.48;1.92;;;;;;;22.97;56.10;98998.69;7308484;19;129841;-40
2023/01/20 05:29:12;;;;;;;;;;;;;;;22.92;56.55;98990.50;7309735;19;129240;-38
2023/01/20 05:31:42;;;;;;;29.33;2.95;;;;;;;22.91;55.88;98988.84;7306466;19;129268;-38
2023/01/20 05:34:09;;;;;;;15.32;1.90;;;;;;;23.03;56.33;99005.91;7307146;19;129128;-39
2023/01/20 05:36:36;;;;;;;23.20;2.63;;;;;;;22.98;56.10;99008.19;7307882;19;129864;-39
2023/01/20 05:39:02;;;;;;;;;;;;;;;22.99;56.26;99001.97;7310976;19;128999;-40
2023/01/20 05:41:28;;;;;;;51.47;5.47;;;;;;;22.97;56.55;99001.31;7306750;19;129670;-39
2023/01/20 05:43:58;;;;;;;25.27;2.73;;;;;;;22.95;55.91;99000.66;7307472;19;130005;-38
2023/01/20 05:46:25;;;;;;;20.60;2.40;;;;;;;22.97;56.56;99014.44;7305361;19;129081;-38
2023/01/20 05:48:52;;;;;;;16.45;1.85;;;;;;;22.93;56.19;99013.09;7306489;19;129439;-38
2023/01/20 05:51:19;;;;;;;41.35;4.47;;;;;;;22.93;56.42;99018.34;7306827;19;129631;-41
2023/01/20 05:53:46;;;;;;;20.40;2.17;;;;;;;22.93;56.17;99020.97;7303866;19;129665;-40
2023/01/20 05:56:14;;;;;;;;;;;;;;;22.92;56.75;99021.97;7307620;19;128787;-38
2023/01/20 05:58:44;;;;;;;31.83;3.53;;;;;;;22.87;56.06;99027.66;7305154;19;129254;-39
2023/01/20 06:01:16;;;;;;;22.92;2.83;;;;;;;22.72;54.93;99020.59;7307771;19;129262;-40
2023/01/20 06:03:43;;;;;;;35.22;3.60;;;;;;;22.70;55.95;99035.66;7304569;19;130855;-40
2023/01/20 06:06:14;;;;;;;;;;;;;;;22.65;55.79;99035.31;7308529;19;129908;-40
2023/01/20 06:08:42;;;;;;;23.42;2.80;;;;;;;22.59;56.75;99036.78;7309168;19;129591;-39
2023/01/20 06:11:09;;;;;;;22.38;2.58;;;;;;;22.48;57.20;99039.66;7307241;19;129011;-38
2023/01/20 06:13:38;;;;;;;35.63;3.72;;;;;;;22.49;57.04;99040.50;7311300;19;129813;-38
2023/01/20 06:16:05;;;;;;;56.38;6.00;;;;;;;22.38;56.93;99027.69;7310917;19;129330;-37
2023/01/20 06:18:33;;;;;;;22.80;2.55;;;;;;;22.40;57.44;99037.00;7315900;19;129150;-41
2023/01/20 06:21:02;;;;;;;25.67;2.85;;;;;;;22.42;57.57;99040.31;7312098;19;130028;-40
2023/01/20 06:23:31;;;;;;;50.78;5.35;;;;;;;22.42;57.44;99049.94;7306445;19;129585;-38
2023/01/20 06:26:05;;;;;;;26.02;2.80;;;;;;;22.46;57.79;99040.81;7314240;19;129281;-38
2023/01/20 06:28:32;;;;;;;46.38;5.35;;;;;;;22.48;57.42;99044.06;7314002;19;129097;-38
2023/01/20 06:31:04;;;;;;;24.15;2.75;;;;;;;22.50;57.24;99055.22;7314821;19;129479;-38
2023/01/20 06:33:34;;;;;;;29.73;3.03;;;;;;;22.55;57.50;99060.84;7310985;19;129886;-38
2023/01/20 06:36:01;;;;;;;22.35;2.55;;;;;;;22.56;57.30;99057.25;7315194;19;129497;-38
2023/01/20 06:38:28;;;;;;;;;;;;;;;22.45;57.49;99041.78;7317237;19;129178;-39
2023/01/20 06:41:03;;;;;;;2.72;0.85;;;;;;;22.54;57.69;99070.50;7315831;19;131526;-41
2023/01/20 06:43:30;;;;;;;40.40;4.40;;;;;;;22.61;57.02;99065.47;7312144;19;129188;-37
2023/01/20 06:46:06;;;;;;;15.45;1.80;;;;;;;22.64;56.92;99070.38;7313717;19;129308;-39
2023/01/20 06:48:33;;;;;;;39.22;3.75;;;;;;;22.68;56.69;99071.69;7315479;19;129453;-39
2023/01/20 06:51:07;;;;;;;16.48;1.90;;;;;;;22.60;56.97;99069.03;7314730;19;129806;-37
2023/01/20 06:53:34;;;;;;;32.13;3.38;;;;;;;22.73;56.52;99074.66;7313300;19;129438;-38
2023/01/20 06:56:00;;;;;;;;;;;;;;;22.70;57.32;99074.97;7313257;19;129719;-39
2023/01/20 06:58:29;;;;;;;21.50;2.83;;;;;;;22.62;57.21;99064.47;7315773;19;131746;-41
2023/01/20 07:00:57;;;;;;;23.85;2.50;;;;;;;22.72;56.47;99086.13;7314114;19;129218;-38
2023/01/20 07:03:24;;;;;;;58.75;6.68;;;;;;;22.67;57.35;99075.28;7291126;19;130617;-40
2023/01/20 07:05:56;;;;;;;23.48;2.53;;;;;;;22.73;56.90;99074.66;7311591;19;128962;-38
2023/01/20 07:08:21;;;;;;;22.77;3.17;;;;;;;22.74;57.02;99092.03;7302546;19;131123;-39
2023/01/20 07:10:47;;;;;;;24.70;2.47;;;;;;;22.68;57.03;99100.50;7312889;19;129369;-41
2023/01/20 07:13:12;;;;;;;22.40;2.70;;;;;;;22.62;57.55;99095.91;7304790;19;129563;-38
2023/01/20 07:15:37;;;;;;;22.15;2.45;;;;;;;22.56;57.19;99105.22;7311759;19;129027;-39
2023/01/20 07:18:03;;;;;;;22.30;2.67;;;;;;;22.39;57.83;99094.81;7310453;19;130543;-41
2023/01/20 07:20:28;;;;;;;34.88;3.33;;;;;;;22.45;58.13;99120.34;7313578;19;129530;-40
2023/01/20 07:22:54;;;;;;;19.37;2.27;;;;;;;22.49;57.56;99119.91;7310386;19;129451;-39
2023/01/20 07:25:19;;;;;;;44.63;5.55;;;;;;;22.45;58.18;99128.22;7309716;19;130989;-41
2023/01/20 07:27:44;;;;;;;32.65;3.25;;;;;;;22.46;57.47;99141.16;7312328;19;129059;-41
2023/01/20 07:30:10;;;;;;;27.45;3.10;;;;;;;22.44;57.43;99131.81;7312608;19;129086;-41
2023/01/20 07:32:35;;;;;;;14.25;2.22;;;;;;;22.50;58.08;99141.66;7310455;19;130129;-40
2023/01/20 07:35:00;;;;;;;27.83;3.20;;;;;;;22.52;57.76;99144.97;7312380;19;129709;-39
2023/01/20 07:37:26;;;;;;;29.03;3.20;;;;;;;22.43;57.54;99124.94;7309932;19;129131;-40
2023/01/20 07:39:51;;;;;;;14.38;1.67;;;;;;;22.56;57.89;99148.94;7312219;19;129224;-38
2023/01/20 07:42:16;;;;;;;34.50;3.35;;;;;;;22.57;57.14;99156.66;7310291;19;129723;-40
2023/01/20 07:44:42;;;;;;;29.27;3.03;;;;;;;22.61;57.82;99157.97;7312136;19;129038;-39
2023/01/20 07:47:07;;;;;;;53.63;5.43;;;;;;;22.56;57.70;99156.81;7308500;19;129430;-39
2023/01/20 07:49:32;;;;;;;35.80;4.00;;;;;;;22.59;57.65;99166.97;7310622;19;129106;-38
2023/01/20 07:51:58;;;;;;;35.95;3.65;;;;;;;22.69;57.04;99172.91;7309097;19;129249;-38
2023/01/20 07:54:24;;;;;;;45.97;4.27;;;;;;;22.70;56.91;99175.38;7306484;19;129316;-40
2023/01/20 07:56:49;;;;;;;33.53;3.40;;;;;;;22.68;57.50;99179.13;7308693;19;128845;-39
2023/01/20 07:59:15;;;;;;;32.03;3.57;;;;;;;22.75;56.78;99188.84;7308263;19;129498;-38
2023/01/20 08:01:42;;;;;;;30.33;3.40;;;;;;;22.83;56.58;99191.50;7306965;19;129330;-40
2023/01/20 08:04:07;;;;;;;24.27;2.85;;;;;;;22.81;56.69;99185.56;7307799;19;129713;-38
2023/01/20 08:06:32;;;;;;;25.83;2.80;;;;;;;22.77;56.74;99189.50;7309843;19;129619;-39
2023/01/20 08:09:00;;;;;;;21.03;2.60;;;;;;;22.74;56.93;99175.88;7309476;19;129429;-36
2023/01/20 08:11:25;;;;;;;20.95;2.40;;;;;;;22.86;56.61;99198.19;7310252;19;130424;-38
2023/01/20 08:13:52;;;;;;;16.25;2.05;;;;;;;22.86;56.78;99198.19;7308388;19;128799;-40
2023/01/20 08:16:18;;;;;;;;;;;;;;;22.76;57.05;99205.34;7309335;19;129129;-38
2023/01/20 08:18:43;;;;;;;21.50;2.33;;;;;;;22.76;56.84;99205.34;7308385;19;130497;-40
2023/01/20 08:21:21;;;;;;;24.00;2.97;;;;;;;22.70;57.04;99200.75;7309359;19;129360;-40
2023/01/20 08:23:47;;;;;;;21.40;2.67;;;;;;;22.62;57.75;99203.34;7308149;19;129790;-41
2023/01/20 08:26:13;;;;;;;27.48;2.95;;;;;;;22.52;57.79;99211.28;7308849;19;129680;-37
2023/01/20 08:28:39;;;;;;;24.23;2.73;;;;;;;22.40;57.85;99198.56;7309523;19;130214;-39
2023/01/20 08:31:10;;;;;;;27.08;3.22;;;;;;;22.44;58.28;99199.94;7310106;19;130208;-40
2023/01/20 08:33:36;;;;;;;22.35;2.65;;;;;;;22.43;57.84;99203.53;7306722;19;128993;-40
2023/01/20 08:36:13;;;;;;;31.90;3.70;;;;;;;22.50;58.25;99222.88;7308156;19;130660;-40
2023/01/20 08:38:39;;;;;;;33.08;3.55;;;;;;;22.54;57.70;99216.41;7309015;19;129037;-35
2023/01/20 08:41:07;;;;;;;20.85;2.47;;;;;;;22.56;57.37;99222.31;7310755;19;129151;-38
2023/01/20 08:43:32;;;;;;;15.90;2.05;;;;;;;22.57;57.30;99231.81;7308379;19;128885;-41
2023/01/20 08:46:05;;;;;;;19.17;2.10;;;;;;;22.58;57.58;99234.25;7309320;19;129380;-41
2023/01/20 08:48:31;;;;;;;37.88;3.80;;;;;;;22.60;57.15;99236.72;7308462;19;129690;-38
2023/01/20 08:50:56;;;;;;;18.00;2.13;;;;;;;22.58;57.89;99243.91;7309762;19;129718;-38
2023/01/20 08:53:22;;;;;;;19.03;2.30;;;;;;;22.59;57.94;99246.38;7307776;19;131338;-40
2023/01/20 08:55:57;;;;;;;23.53;2.40;;;;;;;22.61;57.51;99246.25;7307794;19;129382;-38
2023/01/20 08:58:23;;;;;;;23.15;2.50;;;;;;;;;;7307190;19;130677;-40
2023/01/20 09:00:48;;;;;;;25.95;3.03;;;;;;;22.74;57.36;99249.28;7303523;19;130189;-40
2023/01/20 09:03:13;;;;;;;15.33;1.97;;;;;;;22.71;57.50;99252.22;7306760;19;130940;-38
2023/01/20 09:05:39;;;;;;;18.45;2.28;;;;;;;22.73;57.22;99252.84;7307978;19;130076;-39
2023/01/20 09:08:04;;;;;;;30.73;3.27;;;;;;;22.77;57.33;99254.19;7308080;19;129250;-40
2023/01/20 09:10:33;;;;;;;17.67;2.07;;;;;;;22.79;56.74;99252.25;7310495;19;129186;-38
2023/01/20 09:12:58;;;;;;;22.27;2.22;;;;;;;22.74;56.95;99252.69;7306743;19;129279;-39
2023/01/20 09:15:24;;;;;;;52.23;5.43;;;;;;;22.82;57.05;99265.88;7308249;19;129404;-38
2023/01/20 09:17:49;;;;;;;21.07;2.33;;;;;;;22.87;57.26;99265.41;7307726;19;129764;-40
2023/01/20 09:20:15;;;;;;;22.00;2.30;;;;;;;22.87;56.94;99268.00;7309433;19;129850;-38
2023/01/20 09:22:40;;;;;;;19.27;2.22;;;;;;;22.84;56.76;99268.34;7305788;19;130655;-37
2023/01/20 09:25:08;;;;;;;35.40;3.83;;;;;;;22.76;57.23;99271.72;7307858;19;129236;-38
2023/01/20 09:27:33;;;;;;;27.83;2.92;;;;;;;22.67;57.40;99280.53;7307379;19;129611;-38
2023/01/20 09:29:58;;;;;;;23.83;2.63;;;;;;;22.57;57.62;99278.97;7308845;19;129745;-37
2023/01/20 09:32:24;;;;;;;16.10;1.85;;;;;;;22.56;57.36;99280.75;7308098;19;129327;-41
2023/01/20 09:34:49;;;;;;;20.00;2.10;;;;;;;22.58;58.06;99280.59;7303291;19;129639;-41
2023/01/20 09:45:59;;;;;;;33.75;3.53;;;;;;;22.57;57.41;99286.81;7307236;19;129714;-39
2023/01/20 09:54:46;;;;;;;16.73;2.15;;;;;;;22.73;57.50;99285.13;7315819;19;129664;-40
2023/01/20 09:57:12;;;;;;;29.65;3.22;;;;;;;22.58;57.27;99254.38;7313074;19;129220;-38
2023/01/20 09:59:45;;;;;;;26.15;3.05;;;;;;;22.78;57.27;99279.41;7314484;19;129496;-38
2023/01/20 10:02:21;;;;;;;35.67;4.20;;;;;;;22.83;56.86;99279.78;7308906;19;129874;-37
2023/01/20 10:04:52;;;;;;;20.50;2.25;;;;;;;22.80;56.91;99280.09;7313934;19;129333;-41
2023/01/20 10:07:28;;;;;;;28.60;3.25;;;;;;;22.83;56.80;99285.03;7305295;19;129665;-40
2023/01/20 10:10:17;;;;;;;20.02;2.33;;;;;;;22.76;57.53;99286.59;7315666;19;129068;-41
2023/01/20 10:13:02;;;;;;;22.92;2.65;;;;;;;22.77;57.13;99293.50;7311792;19;129405;-40
2023/01/20 10:15:33;;;;;;;123.55;13.55;;;;;;;22.77;57.08;99283.03;7308130;19;129564;-40
2023/01/20 10:18:08;;;;;;;15.40;2.03;;;;;;;22.92;56.53;99295.38;7312961;19;129480;-38
2023/01/20 10:20:48;;;;;;;38.90;3.88;;;;;;;22.89;56.63;99293.09;7315145;19;129532;-40
2023/01/20 10:23:41;;;;;;;40.30;4.07;;;;;;;22.88;56.50;99294.06;7311658;19;129225;-39
2023/01/20 10:26:12;;;;;;;41.15;4.13;;;;;;;22.83;56.78;99295.50;7310316;19;129161;-38
2023/01/20 10:28:43;;;;;;;21.83;2.70;;;;;;;22.73;56.92;99290.38;7312329;19;129865;-39
2023/01/20 10:31:13;;;;;;;21.85;2.53;;;;;;;22.71;57.42;99291.50;7313631;19;129370;-38
2023/01/20 10:33:43;;;;;;;32.17;3.30;;;;;;;22.62;57.90;99288.00;7308054;19;129759;-38
2023/01/20 10:36:25;;;;;;;31.15;3.58;;;;;;;22.56;58.16;99293.03;7308685;19;129192;-39
2023/01/20 10:38:57;;;;;;;30.83;3.22;;;;;;;22.44;58.49;99278.50;7308132;19;129622;-38
2023/01/20 10:41:41;;;;;;;25.60;2.67;;;;;;;22.51;57.74;99293.44;7313169;19;129702;-38
2023/01/20 10:44:12;;;;;;;24.55;2.80;;;;;;;22.45;57.45;99286.22;7312106;19;129683;-38
2023/01/20 10:47:19;;;;;;;43.05;4.18;;;;;;;22.60;57.46;99310.09;7311499;19;129613;-39
2023/01/20 10:49:55;;;;;;;26.15;3.25;;;;;;;22.63;57.62;99309.78;7313243;19;129071;-39
2023/01/20 10:52:44;;;;;;;22.05;2.58;;;;;;;22.56;58.25;99282.56;7310927;19;129119;-40
2023/01/20 10:55:37;;;;;;;40.63;4.75;;;;;;;22.61;57.98;99306.50;7313671;19;129696;-41
2023/01/20 10:58:11;;;;;;;17.10;2.20;;;;;;;22.67;57.61;99305.88;7312947;19;128995;-39
2023/01/20 11:00:38;;;;;;;20.92;2.28;;;;;;;22.66;57.36;99309.50;7312212;19;129598;-39
2023/01/20 11:03:09;;;;;;;18.95;2.35;;;;;;;22.72;57.25;99309.72;7311934;19;129539;-40
2023/01/20 11:05:37;;;;;;;37.20;4.13;;;;;;;22.67;57.17;99321.63;7312924;19;129837;-40
2023/01/20 11:08:15;;;;;;;33.28;3.60;;;;;;;22.73;57.46;99321.81;7312851;19;129137;-38
2023/01/20 11:10:40;;;;;;;38.72;4.10;;;;;;;22.78;57.32;99318.72;7311546;19;129375;-38
2023/01/20 11:13:09;;;;;;;13.35;1.70;;;;;;;22.77;57.49;99322.34;7310237;19;130434;-39
2023/01/20 11:15:38;;;;;;;52.22;6.20;;;;;;;22.73;57.39;99327.06;7306350;19;129979;-38
2023/01/20 11:18:15;;;;;;;25.58;2.80;;;;;;;22.74;56.98;99323.44;7308487;19;129601;-41
2023/01/20 11:21:03;;;;;;;33.00;3.80;;;;;;;22.79;57.65;99317.78;7311026;19;129297;-40
2023/01/20 11:23:37;;;;;;;29.52;3.08;;;;;;;22.75;57.09;99325.13;7307005;19;130158;-37
2023/01/20 11:26:24;;;;;;;28.80;2.97;;;;;;;22.69;58.11;99327.53;7311268;19;129835;-40
2023/01/20 11:29:22;;;;;;;25.63;3.00;;;;;;;22.65;57.57;99327.00;7310246;19;129001;-39
2023/01/20 11:31:53;;;;;;;27.52;3.17;;;;;;;22.58;57.62;99330.38;7312905;19;129547;-37
2023/01/20 11:34:33;;;;;;;23.50;2.67;;;;;;;22.47;57.72;99327.97;7308406;19;130956;-40
2023/01/20 11:37:01;;;;;;;15.05;1.98;;;;;;;22.47;58.57;99341.06;7309917;19;130567;-37
2023/01/20 11:39:29;;;;;;;20.65;2.60;;;;;;;22.49;58.33;99339.13;7311763;19;129528;-39
2023/01/20 11:42:13;;;;;;;11.82;1.60;;;;;;;22.48;58.61;99345.31;7311957;19;129022;-40
2023/01/20 11:44:46;;;;;;;26.80;3.08;;;;;;;22.49;57.86;99352.22;7312076;19;130943;-38
2023/01/20 11:47:23;;;;;;;47.92;4.57;;;;;;;22.50;58.43;99352.06;7308011;19;129790;-39
2023/01/20 11:50:07;;;;;;;40.47;4.22;;;;;;;22.54;58.39;99355.25;7311451;19;129203;-40
2023/01/20 11:52:43;;;;;;;25.13;3.22;;;;;;;22.55;57.57;99357.72;7310517;19;129364;-38